Time;durP1;ratioP1;P1;durP2;ratioP2;P2;SDS_P1;SDS_P2;PMS_P1;PMS_P2;Temp;Humidity;BMP_temperature;BMP_pressure;BME280_temperature;BME280_humidity;BME280_pressure;Samples;Min_cycle;Max_cycle;Signal;HPM_P1;HPM_P2
2023/10/30 00:02:09;;;;;;;3.07;2.30;;;12.40;99.90;;;;;;5026995;28;20286;-63
2023/10/30 00:04:36;;;;;;;2.53;2.33;;;12.40;99.90;;;;;;5005462;28;20226;-63
2023/10/30 00:07:03;;;;;;;2.40;2.20;;;12.50;99.90;;;;;;5020954;28;20600;-63
2023/10/30 00:09:31;;;;;;;2.13;1.83;;;12.50;99.90;;;;;;5027041;28;20595;-63
2023/10/30 00:11:58;;;;;;;3.00;2.23;;;12.50;99.90;;;;;;5033277;28;20206;-63
2023/10/30 00:14:26;;;;;;;2.80;2.23;;;12.60;99.90;;;;;;5026452;28;20198;-63
2023/10/30 00:16:53;;;;;;;2.33;2.13;;;12.60;99.90;;;;;;5023135;28;20568;-62
2023/10/30 00:19:21;;;;;;;2.20;2.00;;;12.60;99.90;;;;;;5024188;28;20744;-63
2023/10/30 00:21:48;;;;;;;4.30;2.53;;;12.60;99.90;;;;;;5026166;28;20334;-63
2023/10/30 00:24:15;;;;;;;3.67;2.40;;;12.70;99.90;;;;;;5024198;28;20219;-63
2023/10/30 00:26:42;;;;;;;4.13;2.67;;;12.70;99.90;;;;;;5029276;28;20301;-63
2023/10/30 00:29:09;;;;;;;4.07;2.53;;;12.70;99.90;;;;;;5029145;28;20545;-63
2023/10/30 00:31:37;;;;;;;4.07;2.53;;;12.70;99.90;;;;;;5034352;28;20234;-63
2023/10/30 00:34:09;;;;;;;3.60;2.37;;;12.70;99.90;;;;;;5037872;28;20195;-63
2023/10/30 00:36:38;;;;;;;2.40;2.20;;;12.70;99.90;;;;;;5010400;28;20281;-63
2023/10/30 00:39:05;;;;;;;2.47;2.27;;;12.70;99.90;;;;;;5011031;28;20197;-63
2023/10/30 00:41:33;;;;;;;2.87;2.13;;;12.70;99.90;;;;;;5011195;28;20232;-63
2023/10/30 00:44:00;;;;;;;2.53;2.10;;;12.80;99.90;;;;;;5007620;28;20204;-63
2023/10/30 00:46:27;;;;;;;3.30;2.30;;;12.80;99.90;;;;;;5023373;28;20280;-63
2023/10/30 00:48:54;;;;;;;4.33;2.73;;;12.80;99.90;;;;;;5028146;28;20661;-63
2023/10/30 00:51:21;;;;;;;3.47;2.47;;;12.80;99.90;;;;;;5008042;28;20295;-63
2023/10/30 00:53:49;;;;;;;3.50;2.67;;;12.90;99.90;;;;;;5010891;28;20215;-63
2023/10/30 00:56:16;;;;;;;2.33;2.10;;;12.90;99.90;;;;;;5024148;28;20188;-63
2023/10/30 00:58:43;;;;;;;4.40;2.67;;;12.90;99.90;;;;;;5025748;28;20737;-63
2023/10/30 01:01:12;;;;;;;3.50;2.60;;;12.80;99.90;;;;;;5027348;28;20667;-62
2023/10/30 01:03:40;;;;;;;3.40;2.70;;;12.90;99.90;;;;;;5023418;28;20207;-63
2023/10/30 01:06:07;;;;;;;4.37;2.73;;;12.90;99.90;;;;;;5024745;28;20220;-63
2023/10/30 01:08:34;;;;;;;4.40;2.90;;;12.90;99.90;;;;;;5032466;28;20228;-63
2023/10/30 01:11:02;;;;;;;3.50;2.73;;;12.90;99.90;;;;;;5014385;28;20230;-63
2023/10/30 01:13:32;;;;;;;5.07;3.00;;;12.80;99.90;;;;;;5029508;28;20221;-63
2023/10/30 01:15:59;;;;;;;3.90;2.80;;;12.90;99.90;;;;;;5031384;28;20278;-63
2023/10/30 01:18:27;;;;;;;4.23;2.80;;;12.90;99.90;;;;;;5032443;28;20321;-63
2023/10/30 01:20:53;;;;;;;4.93;2.70;;;12.90;99.90;;;;;;5029381;28;20185;-62
2023/10/30 01:23:21;;;;;;;3.53;2.43;;;12.90;99.90;;;;;;5028126;28;20247;-63
2023/10/30 01:25:49;;;;;;;4.67;2.90;;;12.90;99.90;;;;;;5014769;28;20207;-63
2023/10/30 01:28:17;;;;;;;2.83;2.37;;;12.90;99.90;;;;;;5033914;28;20203;-62
2023/10/30 01:30:44;;;;;;;4.07;2.40;;;12.90;99.90;;;;;;5033517;28;20215;-63
2023/10/30 01:33:11;;;;;;;2.57;2.27;;;12.90;99.90;;;;;;5028402;28;20517;-63
2023/10/30 01:35:38;;;;;;;3.50;2.37;;;12.90;99.90;;;;;;5030998;28;20254;-63
2023/10/30 01:38:08;;;;;;;2.73;2.20;;;12.90;99.90;;;;;;5031441;28;20206;-63
2023/10/30 01:40:35;;;;;;;2.80;1.90;;;12.90;99.90;;;;;;5024958;28;20348;-62
2023/10/30 01:43:08;;;;;;;2.10;1.90;;;12.90;99.90;;;;;;5032861;28;20196;-62
2023/10/30 01:45:37;;;;;;;3.03;2.10;;;12.90;99.90;;;;;;5034576;28;20204;-62
2023/10/30 01:48:04;;;;;;;3.27;2.27;;;12.90;99.90;;;;;;5032405;28;20702;-62
2023/10/30 01:50:32;;;;;;;3.47;2.70;;;12.90;99.90;;;;;;5033322;28;20323;-63
2023/10/30 01:52:59;;;;;;;1.93;1.80;;;12.90;99.90;;;;;;5030189;28;20200;-63
2023/10/30 01:55:26;;;;;;;3.27;1.90;;;13.00;99.90;;;;;;5030087;28;20629;-63
2023/10/30 01:57:55;;;;;;;2.30;2.10;;;12.90;99.90;;;;;;5011986;28;20201;-63
2023/10/30 02:03:06;;;;;;;2.10;1.90;;;12.90;99.90;;;;;;5321249;22;20263;-63
2023/10/30 02:05:33;;;;;;;2.33;1.87;;;12.90;99.90;;;;;;4985179;28;20201;-63
2023/10/30 02:08:00;;;;;;;1.50;1.40;;;13.00;99.90;;;;;;5011372;28;20287;-63
2023/10/30 02:10:28;;;;;;;1.47;1.27;;;12.90;99.90;;;;;;5007612;28;20221;-63
2023/10/30 02:12:55;;;;;;;3.50;1.73;;;13.00;99.90;;;;;;5010911;28;20201;-63
2023/10/30 02:15:22;;;;;;;1.90;1.43;;;13.00;99.90;;;;;;5004323;28;20224;-63
2023/10/30 02:17:49;;;;;;;1.50;1.30;;;13.00;99.90;;;;;;5012366;28;20541;-62
2023/10/30 02:20:17;;;;;;;1.63;1.30;;;13.00;99.90;;;;;;5008826;28;20192;-63
2023/10/30 02:22:44;;;;;;;3.50;1.40;;;13.00;99.90;;;;;;5009563;28;21067;-63
2023/10/30 02:25:12;;;;;;;2.07;1.40;;;13.10;99.90;;;;;;4991086;28;20283;-63
2023/10/30 02:27:40;;;;;;;1.57;1.47;;;13.10;99.90;;;;;;4993205;28;20201;-63
2023/10/30 02:30:11;;;;;;;2.60;1.43;;;13.10;99.90;;;;;;4995040;28;20636;-63
2023/10/30 02:32:42;;;;;;;1.27;1.17;;;13.10;99.90;;;;;;5003496;28;20225;-64
2023/10/30 02:35:12;;;;;;;3.93;1.37;;;13.10;99.90;;;;;;4997230;28;20214;-64
2023/10/30 02:37:39;;;;;;;1.40;1.30;;;13.10;99.90;;;;;;5010801;28;20700;-64
2023/10/30 02:40:07;;;;;;;2.10;1.30;;;13.10;99.90;;;;;;5008332;28;20194;-64
2023/10/30 02:42:34;;;;;;;1.00;1.00;;;13.10;99.90;;;;;;5006832;28;20221;-64
2023/10/30 02:45:04;;;;;;;1.30;1.20;;;13.20;99.90;;;;;;4994054;28;20545;-64
2023/10/30 02:47:31;;;;;;;1.67;1.17;;;13.20;99.90;;;;;;5007540;28;20204;-64
2023/10/30 02:49:59;;;;;;;1.87;1.20;;;13.20;99.90;;;;;;5012755;28;20229;-63
2023/10/30 02:52:26;;;;;;;1.53;1.40;;;13.20;99.90;;;;;;5003648;28;20242;-63
2023/10/30 02:54:53;;;;;;;1.67;1.10;;;13.20;99.90;;;;;;5011442;28;20227;-63
2023/10/30 02:57:20;;;;;;;1.27;1.17;;;13.20;99.90;;;;;;5008049;28;20203;-63
2023/10/30 02:59:47;;;;;;;0.97;0.97;;;13.20;99.90;;;;;;4991750;28;20205;-63
2023/10/30 03:02:15;;;;;;;0.87;0.87;;;13.20;99.90;;;;;;5008806;28;20247;-63
2023/10/30 03:04:42;;;;;;;0.93;0.93;;;13.20;99.90;;;;;;5010308;28;20200;-63
2023/10/30 03:07:09;;;;;;;2.37;1.03;;;13.20;99.90;;;;;;5006556;28;20197;-64
2023/10/30 03:09:37;;;;;;;5.13;0.90;;;13.20;99.90;;;;;;4995009;28;20206;-64
2023/10/30 03:12:05;;;;;;;0.90;0.90;;;13.20;99.90;;;;;;5010200;28;20214;-64
2023/10/30 03:14:32;;;;;;;0.80;0.80;;;13.30;99.90;;;;;;5009966;28;20228;-63
2023/10/30 03:16:59;;;;;;;0.80;0.80;;;13.20;99.90;;;;;;5009170;28;20229;-63
2023/10/30 03:19:28;;;;;;;1.00;1.00;;;13.30;99.90;;;;;;4993576;28;20201;-63
2023/10/30 03:21:55;;;;;;;0.87;0.87;;;13.30;99.90;;;;;;5008180;28;20227;-63
2023/10/30 03:24:22;;;;;;;0.83;0.83;;;13.30;99.90;;;;;;5011012;28;20209;-63
2023/10/30 03:26:50;;;;;;;1.57;0.70;;;13.30;99.90;;;;;;5009867;28;20198;-63
2023/10/30 03:29:17;;;;;;;1.13;0.90;;;13.30;99.90;;;;;;4985878;28;20238;-64
2023/10/30 03:31:44;;;;;;;0.70;0.70;;;13.30;99.90;;;;;;5009131;28;20214;-65
2023/10/30 03:34:12;;;;;;;0.60;0.60;;;13.30;99.90;;;;;;5008752;28;20210;-63
2023/10/30 03:36:40;;;;;;;1.73;0.93;;;13.30;99.90;;;;;;5007688;28;20196;-64
2023/10/30 03:39:09;;;;;;;1.43;0.70;;;13.30;99.90;;;;;;5009028;28;20628;-64
2023/10/30 03:41:37;;;;;;;0.83;0.70;;;13.30;99.90;;;;;;5007356;28;20244;-64
2023/10/30 03:44:08;;;;;;;1.27;0.83;;;13.30;99.90;;;;;;5009928;28;20280;-64
2023/10/30 03:46:35;;;;;;;1.00;0.90;;;13.30;99.90;;;;;;5009490;28;20194;-63
2023/10/30 03:49:03;;;;;;;0.87;0.87;;;13.40;99.90;;;;;;5006010;28;20622;-64
2023/10/30 03:51:30;;;;;;;1.37;0.77;;;13.40;99.90;;;;;;4992344;28;20245;-63
2023/10/30 03:53:59;;;;;;;0.90;0.90;;;13.30;99.90;;;;;;5010704;28;20281;-63
2023/10/30 03:56:26;;;;;;;0.70;0.67;;;13.30;99.90;;;;;;5009886;28;20260;-64
2023/10/30 03:58:54;;;;;;;0.70;0.70;;;13.40;99.90;;;;;;5009215;28;20208;-64
2023/10/30 04:01:21;;;;;;;0.70;0.70;;;13.30;99.90;;;;;;5005198;28;20193;-64
2023/10/30 04:03:48;;;;;;;0.70;0.60;;;13.30;99.90;;;;;;4987486;28;20291;-64
2023/10/30 04:06:15;;;;;;;1.13;0.80;;;13.40;99.90;;;;;;5010442;28;20193;-63
2023/10/30 04:08:42;;;;;;;0.80;0.73;;;13.30;99.90;;;;;;5009470;28;20196;-64
2023/10/30 04:11:13;;;;;;;1.10;1.00;;;13.30;99.90;;;;;;5006930;28;20248;-63
2023/10/30 04:13:40;;;;;;;2.43;1.10;;;13.30;99.90;;;;;;5005797;28;20208;-64
2023/10/30 04:16:10;;;;;;;0.70;0.70;;;13.30;99.90;;;;;;5008360;28;20262;-63
2023/10/30 04:18:37;;;;;;;0.60;0.60;;;13.30;99.90;;;;;;5008034;28;20209;-64
2023/10/30 04:21:05;;;;;;;0.80;0.80;;;13.40;99.90;;;;;;5012973;28;20198;-64
2023/10/30 04:23:32;;;;;;;1.10;0.80;;;13.30;99.90;;;;;;5006268;28;20202;-63
2023/10/30 04:25:59;;;;;;;0.70;0.70;;;13.40;99.90;;;;;;5012653;28;20210;-64
2023/10/30 04:28:27;;;;;;;2.40;0.80;;;13.40;99.90;;;;;;5009787;28;20712;-64
2023/10/30 04:30:54;;;;;;;0.53;0.53;;;13.40;99.90;;;;;;5006219;28;20209;-64
2023/10/30 04:33:22;;;;;;;0.60;0.60;;;13.10;99.90;;;;;;5007307;28;20644;-64
2023/10/30 04:35:49;;;;;;;0.70;0.70;;;13.40;99.90;;;;;;4991906;28;20287;-64
2023/10/30 04:38:16;;;;;;;2.23;0.90;;;13.40;99.90;;;;;;5006030;28;20565;-65
2023/10/30 04:40:43;;;;;;;0.90;0.60;;;13.40;99.90;;;;;;4993836;28;20573;-64
2023/10/30 04:43:10;;;;;;;0.60;0.60;;;13.40;99.90;;;;;;4993723;28;20226;-63
2023/10/30 04:45:38;;;;;;;0.80;0.80;;;13.40;99.90;;;;;;5012233;28;20339;-63
2023/10/30 04:48:06;;;;;;;1.27;0.67;;;13.40;99.90;;;;;;5011850;28;20194;-64
2023/10/30 04:50:33;;;;;;;0.50;0.50;;;13.40;99.90;;;;;;4995904;28;20216;-63
2023/10/30 04:53:03;;;;;;;0.70;0.60;;;13.40;99.90;;;;;;5010021;28;20759;-63
2023/10/30 04:55:30;;;;;;;0.80;0.80;;;13.40;99.90;;;;;;4994230;28;20285;-62
2023/10/30 04:57:57;;;;;;;0.87;0.87;;;13.40;99.90;;;;;;5010555;28;20196;-63
2023/10/30 05:00:24;;;;;;;1.50;0.60;;;13.40;99.90;;;;;;5011390;28;20241;-64
2023/10/30 05:02:52;;;;;;;1.53;0.80;;;13.40;99.90;;;;;;4991890;28;20311;-64
2023/10/30 05:05:19;;;;;;;0.60;0.60;;;13.40;99.90;;;;;;4991597;28;20194;-63
2023/10/30 05:07:46;;;;;;;1.00;0.60;;;13.40;99.90;;;;;;5012739;28;20422;-63
2023/10/30 05:10:13;;;;;;;0.60;0.60;;;13.50;99.90;;;;;;5011076;28;20233;-63
2023/10/30 05:12:41;;;;;;;0.60;0.60;;;13.50;99.90;;;;;;5009799;28;20221;-64
2023/10/30 05:15:09;;;;;;;0.80;0.70;;;13.50;99.90;;;;;;5012469;28;20195;-64
2023/10/30 05:17:38;;;;;;;0.53;0.53;;;13.50;99.90;;;;;;5013665;28;20202;-64
2023/10/30 05:20:08;;;;;;;0.50;0.50;;;13.50;99.90;;;;;;4991879;28;20222;-64
2023/10/30 05:22:35;;;;;;;0.43;0.43;;;13.50;99.90;;;;;;5011874;28;20191;-64
2023/10/30 05:25:03;;;;;;;0.60;0.60;;;13.50;99.90;;;;;;5012750;28;20230;-63
2023/10/30 05:27:31;;;;;;;5.60;0.60;;;13.50;99.90;;;;;;5011476;28;20685;-64
2023/10/30 05:29:58;;;;;;;1.73;0.90;;;13.50;99.90;;;;;;4989633;28;20218;-64
2023/10/30 05:32:25;;;;;;;0.47;0.47;;;13.50;99.90;;;;;;5013438;28;20305;-63
2023/10/30 05:34:53;;;;;;;0.57;0.57;;;13.50;99.90;;;;;;5008671;28;22074;-63
2023/10/30 05:37:22;;;;;;;0.87;0.60;;;13.50;99.90;;;;;;5011418;28;20304;-63
2023/10/30 05:39:50;;;;;;;0.97;0.60;;;13.50;99.90;;;;;;5010821;28;20194;-63
2023/10/30 05:42:17;;;;;;;0.57;0.50;;;13.50;99.90;;;;;;5009260;28;20565;-62
2023/10/30 05:44:44;;;;;;;0.60;0.60;;;13.50;99.90;;;;;;5012431;28;20206;-62
2023/10/30 05:47:12;;;;;;;1.60;0.70;;;13.50;99.90;;;;;;5008450;28;20272;-64
2023/10/30 05:49:40;;;;;;;1.50;0.70;;;13.50;99.90;;;;;;5008783;28;20752;-63
2023/10/30 05:52:08;;;;;;;0.70;0.70;;;13.50;99.90;;;;;;5018280;28;20252;-63
2023/10/30 05:54:36;;;;;;;0.60;0.60;;;13.50;99.90;;;;;;5012264;28;20328;-64
2023/10/30 05:57:03;;;;;;;1.47;0.80;;;13.50;99.90;;;;;;5009232;28;20293;-64
2023/10/30 05:59:30;;;;;;;0.70;0.70;;;13.50;99.90;;;;;;5011684;28;20206;-64
2023/10/30 06:01:58;;;;;;;1.07;0.60;;;13.50;99.90;;;;;;5016902;28;20289;-64
2023/10/30 06:04:25;;;;;;;0.60;0.60;;;13.50;99.90;;;;;;5008093;28;20286;-64
2023/10/30 06:06:53;;;;;;;0.57;0.57;;;13.50;99.90;;;;;;5016546;28;20211;-63
2023/10/30 06:09:20;;;;;;;0.50;0.50;;;13.50;99.90;;;;;;5011606;28;20569;-64
2023/10/30 06:11:49;;;;;;;0.90;0.40;;;13.50;99.90;;;;;;4990999;28;20229;-64
2023/10/30 06:14:18;;;;;;;0.50;0.50;;;13.50;99.90;;;;;;5006754;28;20221;-64
2023/10/30 06:16:45;;;;;;;0.60;0.60;;;13.60;99.90;;;;;;4994232;28;20225;-64
2023/10/30 06:19:12;;;;;;;0.77;0.60;;;13.50;99.90;;;;;;5007742;28;20272;-64
2023/10/30 06:21:40;;;;;;;0.63;0.60;;;13.60;99.90;;;;;;5011516;28;20567;-63
2023/10/30 06:24:07;;;;;;;1.27;0.60;;;13.60;99.90;;;;;;5010464;28;20376;-63
2023/10/30 06:26:34;;;;;;;0.60;0.60;;;13.60;99.90;;;;;;5010877;28;20194;-63
2023/10/30 06:29:03;;;;;;;0.60;0.60;;;13.50;99.90;;;;;;5010909;28;20206;-63
2023/10/30 06:31:30;;;;;;;2.20;0.70;;;13.60;99.90;;;;;;5008100;28;20201;-63
2023/10/30 06:33:57;;;;;;;1.27;0.83;;;13.60;99.90;;;;;;5009908;28;20329;-62
2023/10/30 06:36:24;;;;;;;1.33;0.90;;;13.60;99.90;;;;;;5012516;28;20212;-64
2023/10/30 06:38:51;;;;;;;0.70;0.70;;;13.60;99.90;;;;;;5007611;28;20264;-63
2023/10/30 06:41:18;;;;;;;0.60;0.60;;;13.60;99.90;;;;;;5009518;28;20284;-64
2023/10/30 06:43:45;;;;;;;0.70;0.70;;;13.60;99.90;;;;;;5010700;28;20197;-64
2023/10/30 06:46:14;;;;;;;0.90;0.90;;;13.60;99.90;;;;;;5008649;28;20198;-63
2023/10/30 06:48:41;;;;;;;0.80;0.80;;;13.60;99.90;;;;;;5005739;28;20245;-63
2023/10/30 06:51:08;;;;;;;0.50;0.50;;;13.60;99.90;;;;;;4999085;28;20657;-63
2023/10/30 06:53:35;;;;;;;0.50;0.50;;;13.60;99.90;;;;;;5007814;28;20352;-64
2023/10/30 06:56:02;;;;;;;0.70;0.70;;;13.70;99.90;;;;;;5009055;28;20317;-63
2023/10/30 06:58:29;;;;;;;0.93;0.50;;;13.60;99.90;;;;;;4995911;28;20210;-63
2023/10/30 07:01:02;;;;;;;0.47;0.47;;;13.70;99.90;;;;;;5001911;28;20224;-63
2023/10/30 07:03:32;;;;;;;0.53;0.50;;;13.70;99.90;;;;;;4989078;28;20309;-63
2023/10/30 07:05:59;;;;;;;1.30;1.10;;;13.70;99.90;;;;;;4989312;28;20543;-64
2023/10/30 07:08:26;;;;;;;0.70;0.70;;;13.70;99.90;;;;;;4987426;28;20226;-63
2023/10/30 07:10:55;;;;;;;0.70;0.70;;;13.70;99.90;;;;;;4982156;28;20215;-63
2023/10/30 07:13:23;;;;;;;0.50;0.50;;;13.70;99.90;;;;;;5005603;28;20214;-64
2023/10/30 07:15:50;;;;;;;0.83;0.83;;;13.70;99.90;;;;;;5004108;28;20206;-64
2023/10/30 07:18:17;;;;;;;0.70;0.70;;;13.70;99.90;;;;;;5009246;28;20668;-63
2023/10/30 07:20:46;;;;;;;1.97;0.90;;;13.70;99.90;;;;;;5006308;28;20748;-63
2023/10/30 07:23:13;;;;;;;0.80;0.80;;;13.70;99.90;;;;;;5007295;28;20256;-63
2023/10/30 07:25:40;;;;;;;0.60;0.60;;;13.70;99.90;;;;;;5007873;28;20316;-64
2023/10/30 07:28:09;;;;;;;0.60;0.60;;;13.70;99.90;;;;;;5005736;28;20198;-64
2023/10/30 07:30:36;;;;;;;2.53;1.00;;;13.70;99.90;;;;;;4988442;28;20637;-62
2023/10/30 07:33:03;;;;;;;1.20;0.90;;;13.70;99.90;;;;;;5007367;28;20230;-63
2023/10/30 07:35:30;;;;;;;0.97;0.90;;;13.70;99.90;;;;;;5003821;28;20225;-63
2023/10/30 07:37:58;;;;;;;1.57;1.07;;;13.70;99.90;;;;;;5008357;28;20203;-64
2023/10/30 07:40:26;;;;;;;1.23;1.00;;;13.70;99.90;;;;;;5006969;28;20687;-64
2023/10/30 07:42:54;;;;;;;1.10;0.90;;;13.70;99.90;;;;;;5006128;28;20277;-64
2023/10/30 07:45:22;;;;;;;1.27;0.70;;;13.70;99.90;;;;;;5005784;28;20582;-64
2023/10/30 07:47:49;;;;;;;1.70;0.90;;;13.70;99.90;;;;;;5010321;28;20212;-63
2023/10/30 07:50:18;;;;;;;0.73;0.70;;;13.70;99.90;;;;;;5000070;28;20252;-62
2023/10/30 07:52:45;;;;;;;1.03;0.93;;;13.70;99.90;;;;;;5013532;28;20582;-63
2023/10/30 07:55:14;;;;;;;0.73;0.73;;;13.70;99.90;;;;;;5004763;28;20225;-63
2023/10/30 07:57:42;;;;;;;1.53;1.00;;;13.70;99.90;;;;;;5007020;28;20284;-64
2023/10/30 08:00:11;;;;;;;3.27;1.37;;;13.70;99.90;;;;;;5004409;28;20213;-63
2023/10/30 08:02:42;;;;;;;1.20;1.10;;;13.80;99.90;;;;;;5000780;28;20246;-63
2023/10/30 08:05:09;;;;;;;1.30;1.20;;;13.80;99.90;;;;;;4986854;28;20482;-63
2023/10/30 08:07:37;;;;;;;0.80;0.80;;;13.80;99.90;;;;;;5004152;28;20209;-64
2023/10/30 08:10:05;;;;;;;0.90;0.90;;;13.80;99.90;;;;;;5004142;28;20208;-64
2023/10/30 08:12:33;;;;;;;0.90;0.87;;;13.80;99.90;;;;;;5008448;28;20328;-64
2023/10/30 08:15:01;;;;;;;0.90;0.90;;;13.80;99.90;;;;;;5008716;28;20252;-64
2023/10/30 08:17:29;;;;;;;1.10;0.93;;;13.90;99.90;;;;;;5006749;28;20225;-64
2023/10/30 08:19:56;;;;;;;1.63;0.70;;;13.90;99.90;;;;;;5010329;28;20285;-64
2023/10/30 08:22:23;;;;;;;0.80;0.80;;;13.90;99.90;;;;;;5007165;28;20197;-64
2023/10/30 08:24:51;;;;;;;1.53;0.83;;;13.90;99.90;;;;;;5006595;28;20203;-64
2023/10/30 08:27:18;;;;;;;1.20;0.70;;;14.00;99.90;;;;;;5010113;28;20557;-63
2023/10/30 08:29:46;;;;;;;1.03;0.80;;;14.10;99.90;;;;;;5010987;28;20191;-63
2023/10/30 08:32:14;;;;;;;1.93;1.10;;;14.10;99.90;;;;;;5006805;28;20198;-63
2023/10/30 08:34:41;;;;;;;2.33;0.80;;;14.10;99.90;;;;;;5010597;28;20206;-64
2023/10/30 08:37:08;;;;;;;1.87;0.77;;;14.20;99.90;;;;;;5007201;28;20950;-64
2023/10/30 08:39:35;;;;;;;3.00;0.80;;;14.30;99.90;;;;;;5017694;28;20507;-64
2023/10/30 08:42:05;;;;;;;1.80;0.87;;;14.30;99.90;;;;;;5007716;28;20660;-64
2023/10/30 08:44:32;;;;;;;2.63;1.07;;;14.30;99.90;;;;;;4990467;28;20211;-63
2023/10/30 08:47:01;;;;;;;1.10;0.80;;;14.30;99.90;;;;;;5005186;28;20203;-63
2023/10/30 08:49:28;;;;;;;0.80;0.80;;;14.40;99.90;;;;;;5012449;28;20201;-64
2023/10/30 08:51:55;;;;;;;0.90;0.70;;;14.40;99.90;;;;;;5009319;28;20206;-63
2023/10/30 08:54:24;;;;;;;0.90;0.60;;;14.40;99.90;;;;;;5010324;28;20681;-63
2023/10/30 08:56:51;;;;;;;0.60;0.50;;;14.40;99.90;;;;;;5009385;28;20207;-62
2023/10/30 08:59:18;;;;;;;0.57;0.53;;;14.40;99.90;;;;;;5012943;28;20213;-63
2023/10/30 09:01:45;;;;;;;0.80;0.63;;;14.40;99.90;;;;;;5008858;28;20212;-63
2023/10/30 09:04:14;;;;;;;0.53;0.50;;;14.40;99.90;;;;;;4987650;28;20558;-62
2023/10/30 09:06:42;;;;;;;1.40;0.80;;;14.50;99.90;;;;;;5009710;28;20199;-64
2023/10/30 09:09:11;;;;;;;0.60;0.57;;;14.50;99.90;;;;;;4994178;28;20209;-63
2023/10/30 09:11:38;;;;;;;2.30;0.87;;;14.50;99.90;;;;;;5004074;28;20210;-65
2023/10/30 09:14:05;;;;;;;3.37;0.80;;;14.60;99.90;;;;;;5011904;28;20767;-63
2023/10/30 09:16:35;;;;;;;0.50;0.50;;;14.60;99.90;;;;;;5005733;28;20214;-64
2023/10/30 09:19:02;;;;;;;2.13;0.77;;;14.60;99.90;;;;;;5011450;28;20212;-64
2023/10/30 09:21:30;;;;;;;0.80;0.67;;;14.60;99.90;;;;;;5006900;28;20574;-63
2023/10/30 09:23:58;;;;;;;1.93;0.70;;;14.70;99.90;;;;;;5015140;28;20230;-65
2023/10/30 09:26:25;;;;;;;0.70;0.63;;;14.70;99.90;;;;;;5003390;28;20196;-64
2023/10/30 09:28:52;;;;;;;0.73;0.60;;;14.80;99.90;;;;;;4997113;28;20298;-63
2023/10/30 09:31:20;;;;;;;0.50;0.50;;;14.80;99.90;;;;;;4987401;28;20202;-63
2023/10/30 09:33:47;;;;;;;2.43;0.70;;;14.90;99.90;;;;;;5011451;28;20318;-64
2023/10/30 09:36:14;;;;;;;0.60;0.60;;;14.80;99.90;;;;;;5007445;28;20209;-64
2023/10/30 09:38:43;;;;;;;2.03;0.80;;;15.00;99.90;;;;;;5006494;28;20970;-64
2023/10/30 09:41:13;;;;;;;0.97;0.87;;;15.00;99.90;;;;;;4991167;28;20573;-64
2023/10/30 09:43:40;;;;;;;0.60;0.60;;;15.10;99.90;;;;;;4992626;28;20397;-65
2023/10/30 09:46:08;;;;;;;0.73;0.73;;;15.10;99.90;;;;;;5001982;28;20200;-64
2023/10/30 09:48:38;;;;;;;0.73;0.73;;;15.10;99.90;;;;;;5003577;28;20245;-64
2023/10/30 09:51:09;;;;;;;0.97;0.70;;;15.10;99.90;;;;;;4987093;28;20619;-63
2023/10/30 09:53:38;;;;;;;0.70;0.43;;;15.10;99.90;;;;;;4986796;28;20294;-63
2023/10/30 09:56:08;;;;;;;0.63;0.50;;;15.10;99.90;;;;;;4982321;28;20195;-64
2023/10/30 09:58:37;;;;;;;2.13;0.80;;;15.20;99.90;;;;;;5007209;28;20219;-63
2023/10/30 10:01:07;;;;;;;0.73;0.73;;;15.20;99.90;;;;;;5005906;28;20195;-64
2023/10/30 10:03:33;;;;;;;1.57;0.70;;;15.30;99.90;;;;;;5008021;28;20726;-64
2023/10/30 10:06:01;;;;;;;1.70;0.70;;;15.30;99.90;;;;;;4988408;28;20299;-64
2023/10/30 10:08:28;;;;;;;0.70;0.70;;;15.30;99.90;;;;;;5008736;28;20268;-63
2023/10/30 10:10:59;;;;;;;1.13;0.77;;;15.40;99.90;;;;;;5007645;28;20246;-63
2023/10/30 10:13:29;;;;;;;2.10;0.80;;;15.40;99.90;;;;;;5005600;28;20233;-64
2023/10/30 10:15:56;;;;;;;2.47;1.00;;;15.40;99.90;;;;;;5007655;28;20207;-64
2023/10/30 10:18:25;;;;;;;0.87;0.87;;;15.50;99.90;;;;;;5007803;28;20611;-64
2023/10/30 10:20:58;;;;;;;0.93;0.70;;;15.50;99.90;;;;;;5003206;28;20666;-64
2023/10/30 10:23:30;;;;;;;2.57;0.70;;;15.50;99.90;;;;;;5003321;28;20215;-64
2023/10/30 10:25:57;;;;;;;1.97;0.70;;;15.60;99.90;;;;;;5009371;28;20204;-64
2023/10/30 10:28:27;;;;;;;1.67;0.53;;;15.60;99.90;;;;;;4988010;28;20536;-63
2023/10/30 10:30:54;;;;;;;1.80;0.50;;;15.60;99.90;;;;;;5005172;28;20246;-63
2023/10/30 10:33:22;;;;;;;0.50;0.50;;;15.70;99.90;;;;;;5004139;28;20717;-63
2023/10/30 10:35:54;;;;;;;0.50;0.50;;;15.70;99.90;;;;;;5007003;28;20213;-63
2023/10/30 10:38:21;;;;;;;1.43;0.70;;;15.70;99.90;;;;;;5007934;28;20207;-64
2023/10/30 10:40:49;;;;;;;0.67;0.50;;;15.70;99.90;;;;;;5002545;28;20238;-63
2023/10/30 10:43:18;;;;;;;2.67;0.80;;;15.70;99.90;;;;;;4998638;28;20199;-63
2023/10/30 10:45:48;;;;;;;0.77;0.40;;;15.70;99.90;;;;;;5009853;28;20559;-63
2023/10/30 10:48:16;;;;;;;1.47;0.60;;;15.70;99.90;;;;;;4995984;28;20255;-64
2023/10/30 10:50:45;;;;;;;0.67;0.67;;;15.70;99.90;;;;;;5011158;28;20203;-63
2023/10/30 10:53:19;;;;;;;0.50;0.50;;;15.70;99.90;;;;;;5009296;28;20528;-63
2023/10/30 10:55:49;;;;;;;1.53;1.10;;;15.80;99.90;;;;;;4993052;28;20531;-63
2023/10/30 10:58:20;;;;;;;1.33;1.10;;;15.80;99.90;;;;;;5006944;28;20257;-63
2023/10/30 11:00:50;;;;;;;0.83;0.70;;;15.80;99.90;;;;;;4988091;28;20330;-63
2023/10/30 11:03:18;;;;;;;1.10;0.90;;;15.80;99.90;;;;;;5006126;28;20595;-64
2023/10/30 11:05:47;;;;;;;2.10;1.03;;;15.70;99.90;;;;;;5009264;28;20516;-64
2023/10/30 11:08:31;;;;;;;0.90;0.50;;;15.70;99.90;;;;;;4999942;28;20570;-62
2023/10/30 11:11:08;;;;;;;0.90;0.50;;;15.70;99.90;;;;;;5008957;28;20203;-63
2023/10/30 11:13:44;;;;;;;0.60;0.60;;;15.70;99.90;;;;;;5000198;28;20212;-63
2023/10/30 11:16:20;;;;;;;0.80;0.60;;;15.70;99.90;;;;;;5007521;28;20206;-63
2023/10/30 11:18:51;;;;;;;2.73;0.90;;;15.70;99.90;;;;;;5006490;28;20241;-64
2023/10/30 11:21:25;;;;;;;1.40;0.60;;;15.70;99.90;;;;;;4983242;28;20270;-64
2023/10/30 11:23:54;;;;;;;0.53;0.50;;;15.70;99.90;;;;;;5003209;28;20359;-63
2023/10/30 11:26:43;;;;;;;1.27;1.00;;;15.70;99.90;;;;;;5004499;28;20880;-63
2023/10/30 11:29:15;;;;;;;0.80;0.80;;;15.70;99.90;;;;;;4985948;28;20238;-63
2023/10/30 11:32:04;;;;;;;0.73;0.50;;;15.80;99.90;;;;;;5006093;28;20206;-63
2023/10/30 11:34:33;;;;;;;1.60;0.93;;;15.60;99.90;;;;;;4998840;28;20572;-62
2023/10/30 11:37:05;;;;;;;2.03;0.73;;;15.80;99.90;;;;;;5006402;28;20303;-64
2023/10/30 11:39:38;;;;;;;0.73;0.70;;;15.80;99.90;;;;;;5008019;28;20196;-64
2023/10/30 11:42:33;;;;;;;2.23;0.70;;;15.80;99.90;;;;;;4987836;28;20215;-63
2023/10/30 11:45:21;;;;;;;1.27;0.90;;;15.80;99.90;;;;;;4987514;28;20412;-63
2023/10/30 11:47:57;;;;;;;0.73;0.70;;;15.90;99.90;;;;;;4985884;28;20196;-63
2023/10/30 11:50:29;;;;;;;1.57;0.80;;;15.90;99.90;;;;;;5005422;28;20207;-63
2023/10/30 11:53:03;;;;;;;2.00;0.83;;;15.90;99.90;;;;;;4987142;28;20278;-64
2023/10/30 11:55:31;;;;;;;1.37;0.70;;;15.90;99.90;;;;;;5004791;28;20298;-63
2023/10/30 11:57:59;;;;;;;1.13;1.00;;;16.00;99.90;;;;;;4993139;28;20223;-64
2023/10/30 12:00:26;;;;;;;2.67;0.90;;;16.00;99.90;;;;;;5007506;28;20188;-63
2023/10/30 12:02:55;;;;;;;0.93;0.70;;;16.00;99.90;;;;;;5005813;28;20231;-64
2023/10/30 12:05:24;;;;;;;0.80;0.80;;;16.00;99.90;;;;;;5003590;28;20345;-63
2023/10/30 12:07:51;;;;;;;1.83;0.87;;;16.00;99.90;;;;;;5002347;28;20201;-63
2023/10/30 12:10:19;;;;;;;1.27;0.90;;;16.00;99.90;;;;;;5001990;28;20191;-63
2023/10/30 12:12:46;;;;;;;1.77;1.40;;;16.00;99.90;;;;;;5006004;28;20205;-64
2023/10/30 12:15:15;;;;;;;2.77;1.27;;;16.00;99.90;;;;;;4986233;28;20610;-63
2023/10/30 12:17:42;;;;;;;0.87;0.87;;;16.00;99.90;;;;;;4988320;28;20200;-63
2023/10/30 12:20:11;;;;;;;1.80;0.67;;;16.00;99.90;;;;;;5007468;28;20200;-64
2023/10/30 12:22:41;;;;;;;0.80;0.80;;;16.00;99.90;;;;;;5004938;28;20207;-64
2023/10/30 12:25:09;;;;;;;1.83;1.27;;;16.00;99.90;;;;;;4989668;28;20763;-63
2023/10/30 12:27:37;;;;;;;1.03;0.80;;;16.10;99.90;;;;;;5006643;28;20566;-64
2023/10/30 12:30:15;;;;;;;0.97;0.97;;;16.10;99.90;;;;;;4987105;28;20638;-63
2023/10/30 12:32:42;;;;;;;2.83;1.07;;;16.00;99.90;;;;;;5004192;28;20817;-63
2023/10/30 12:35:15;;;;;;;1.63;0.77;;;16.00;99.90;;;;;;5004717;28;20298;-62
2023/10/30 12:37:42;;;;;;;1.07;0.73;;;16.00;99.90;;;;;;5009193;28;20210;-64
2023/10/30 12:40:13;;;;;;;1.07;0.77;;;16.00;99.90;;;;;;5006640;28;20232;-63
2023/10/30 12:42:41;;;;;;;4.33;0.90;;;16.00;99.90;;;;;;5004028;28;20197;-63
2023/10/30 12:45:11;;;;;;;2.40;1.10;;;16.00;99.90;;;;;;5004718;28;20268;-62
2023/10/30 12:47:39;;;;;;;2.87;1.20;;;16.00;99.90;;;;;;5006857;28;20691;-63
2023/10/30 12:50:10;;;;;;;1.13;1.00;;;16.00;99.90;;;;;;4986905;28;20362;-64
2023/10/30 12:52:39;;;;;;;0.97;0.80;;;16.00;99.90;;;;;;5014212;28;20665;-64
2023/10/30 12:55:07;;;;;;;1.50;0.87;;;16.00;99.90;;;;;;5006030;28;20300;-64
2023/10/30 12:57:36;;;;;;;1.00;0.70;;;16.00;99.90;;;;;;5002951;28;20297;-63